KCAK/CAK METAR and TAF weather

Enter ICAO airport designator
Station Type Date Time Source
KCAK METAR 2018/12/10 19:51 UTC NOAA

KCAK 101951Z 29003KT 8SM OVC021 M01/M06 A3017 RMK AO2 SLP233 T10061061


Station Type Date Time Source
KCAK Decoded METAR 2018/12/10 19:51 UTC NOAA

AKRON-CANTON REGIONAL AIRPORT , OH, United States (KCAK) 40-55N 081-27W 377M
Dec 10, 2018 - 02:51 PM EST / 2018.12.10 1951 UTC
Wind: from the WNW (290 degrees) at 3 MPH (3 KT):0
Visibility: 8 mile(s):0
Sky conditions: overcast
Temperature: 30.9 F (-0.6 C)
Dew Point: 21.0 F (-6.1 C)
Relative Humidity: 66%
Pressure (altimeter): 30.17 in. Hg (1021 hPa)
ob: KCAK 101951Z 29003KT 8SM OVC021 M01/M06 A3017 RMK AO2 SLP233 T10061061
cycle: 20

Station Type Date Time Source
KCAK TAF 2018/12/10 18:42 UTC NOAA

TAF
AMD KCAK 101740Z 1018/1118 VRB04KT P6SM OVC015
FM111000 22008KT P6SM SCT015 BKN025


Example: see airport list